Wellsburg, North Dakota
Current Conditions -  °F | °C
As of 7:35 AM on Saturday 25 Oct 2014 (Local Time) from K5H4 Reporting Station
Clear Clear  
Wind Chill: 20°   Ceiling: Unl
Heat Index: 28°   Visibility: 10mi
Dew Point: 28°   Wind: 9mph
Humidity: 100%   Direction: 240°WSW
Pressure: 30.11"   Gusts: NA
Location:  47.7822°N, 99.8441°W
Report Text: K5H4 251235Z AUTO 24008KT 10SM CLR M02/M02 A3011 RMK AO2
Loading
Personal Weather Stations






























Interactive Weather Map New forecast layout! Learn more

10-Day Weather Forecast

Advertisements
Track Severe Weather on mobile